Terminal Aerodrome Forecast
Issued by NWS Corpus Christi, TX

Home | Current Version | Previous Version | Text Only | Print | Product List | Glossary On
Versions: 1 2 3 4 5 6 7 8 9 10 11 12 13 14 15 16 17 18 19
895
FTUS44 KCRP 031743
TAFCRP
TAF
KCRP 031743Z 0318/0418 02011KT P6SM -RA BKN008 BKN018
     FM032000 04010KT 6SM -SHRA BR BKN008 OVC100
     FM040800 04015KT P6SM -RA BKN007 OVC013=

USA.gov is the U.S. government's official web portal to all federal, state and local government web resources and services.